sensor_id;sensor_type;location;lat;lon;timestamp;P1;durP1;ratioP1;P2;durP2;ratioP2
40907;SDS011;51055;59.436;24.778;2023-02-04T00:00:11;2.72;;;1.50;;
40907;SDS011;51055;59.436;24.778;2023-02-04T00:02:39;2.38;;;1.30;;
40907;SDS011;51055;59.436;24.778;2023-02-04T00:05:08;3.35;;;1.13;;
40907;SDS011;51055;59.436;24.778;2023-02-04T00:07:36;2.47;;;1.30;;
40907;SDS011;51055;59.436;24.778;2023-02-04T00:10:04;3.38;;;1.60;;
40907;SDS011;51055;59.436;24.778;2023-02-04T00:12:31;4.00;;;1.25;;
40907;SDS011;51055;59.436;24.778;2023-02-04T00:15:00;3.15;;;1.42;;
40907;SDS011;51055;59.436;24.778;2023-02-04T00:17:28;3.33;;;1.50;;
40907;SDS011;51055;59.436;24.778;2023-02-04T00:19:55;5.05;;;1.50;;
40907;SDS011;51055;59.436;24.778;2023-02-04T00:22:22;3.45;;;1.30;;
40907;SDS011;51055;59.436;24.778;2023-02-04T00:24:50;3.80;;;1.50;;
40907;SDS011;51055;59.436;24.778;2023-02-04T00:27:17;4.40;;;1.70;;
40907;SDS011;51055;59.436;24.778;2023-02-04T00:29:44;3.45;;;1.50;;
40907;SDS011;51055;59.436;24.778;2023-02-04T00:32:12;3.55;;;1.50;;
40907;SDS011;51055;59.436;24.778;2023-02-04T00:34:39;4.15;;;1.48;;
40907;SDS011;51055;59.436;24.778;2023-02-04T00:37:07;4.50;;;1.88;;
40907;SDS011;51055;59.436;24.778;2023-02-04T00:39:34;3.72;;;1.60;;
40907;SDS011;51055;59.436;24.778;2023-02-04T00:42:01;5.43;;;2.00;;
40907;SDS011;51055;59.436;24.778;2023-02-04T00:44:28;4.47;;;2.03;;
40907;SDS011;51055;59.436;24.778;2023-02-04T00:46:55;4.32;;;2.35;;
40907;SDS011;51055;59.436;24.778;2023-02-04T00:49:23;5.60;;;2.13;;
40907;SDS011;51055;59.436;24.778;2023-02-04T00:51:50;6.43;;;2.05;;
40907;SDS011;51055;59.436;24.778;2023-02-04T00:54:18;3.60;;;1.80;;
40907;SDS011;51055;59.436;24.778;2023-02-04T00:56:45;6.28;;;1.92;;
40907;SDS011;51055;59.436;24.778;2023-02-04T00:59:13;4.13;;;2.10;;
40907;SDS011;51055;59.436;24.778;2023-02-04T01:01:40;4.30;;;2.30;;
40907;SDS011;51055;59.436;24.778;2023-02-04T01:04:08;5.57;;;2.38;;
40907;SDS011;51055;59.436;24.778;2023-02-04T01:06:35;4.15;;;2.28;;
40907;SDS011;51055;59.436;24.778;2023-02-04T01:09:03;3.97;;;2.00;;
40907;SDS011;51055;59.436;24.778;2023-02-04T01:11:31;4.20;;;2.35;;
40907;SDS011;51055;59.436;24.778;2023-02-04T01:13:58;6.15;;;2.30;;
40907;SDS011;51055;59.436;24.778;2023-02-04T01:16:25;5.45;;;2.85;;
40907;SDS011;51055;59.436;24.778;2023-02-04T01:18:53;5.15;;;2.80;;
40907;SDS011;51055;59.436;24.778;2023-02-04T01:21:22;5.10;;;2.75;;
40907;SDS011;51055;59.436;24.778;2023-02-04T01:23:50;5.53;;;3.03;;
40907;SDS011;51055;59.436;24.778;2023-02-04T01:26:17;5.03;;;2.72;;
40907;SDS011;51055;59.436;24.778;2023-02-04T01:28:45;5.35;;;2.90;;
40907;SDS011;51055;59.436;24.778;2023-02-04T01:31:13;5.45;;;3.28;;
40907;SDS011;51055;59.436;24.778;2023-02-04T01:33:40;5.73;;;3.30;;
40907;SDS011;51055;59.436;24.778;2023-02-04T01:36:07;5.97;;;3.20;;
40907;SDS011;51055;59.436;24.778;2023-02-04T01:38:35;5.57;;;3.22;;
40907;SDS011;51055;59.436;24.778;2023-02-04T01:41:02;7.43;;;2.97;;
40907;SDS011;51055;59.436;24.778;2023-02-04T01:43:30;5.15;;;2.83;;
40907;SDS011;51055;59.436;24.778;2023-02-04T01:45:58;6.03;;;3.10;;
40907;SDS011;51055;59.436;24.778;2023-02-04T01:48:26;6.50;;;3.17;;
40907;SDS011;51055;59.436;24.778;2023-02-04T01:50:59;5.85;;;2.97;;
40907;SDS011;51055;59.436;24.778;2023-02-04T01:53:27;6.50;;;3.33;;
40907;SDS011;51055;59.436;24.778;2023-02-04T01:55:55;7.53;;;3.40;;
40907;SDS011;51055;59.436;24.778;2023-02-04T01:58:22;5.53;;;3.08;;
40907;SDS011;51055;59.436;24.778;2023-02-04T02:00:50;5.63;;;3.00;;
40907;SDS011;51055;59.436;24.778;2023-02-04T02:03:17;5.72;;;3.00;;
40907;SDS011;51055;59.436;24.778;2023-02-04T02:05:46;5.25;;;2.97;;
40907;SDS011;51055;59.436;24.778;2023-02-04T02:08:14;5.68;;;2.83;;
40907;SDS011;51055;59.436;24.778;2023-02-04T02:10:42;6.15;;;3.25;;
40907;SDS011;51055;59.436;24.778;2023-02-04T02:13:11;5.35;;;2.10;;
40907;SDS011;51055;59.436;24.778;2023-02-04T02:15:39;4.38;;;2.30;;
40907;SDS011;51055;59.436;24.778;2023-02-04T02:18:07;4.72;;;2.72;;
40907;SDS011;51055;59.436;24.778;2023-02-04T02:20:35;6.05;;;2.80;;
40907;SDS011;51055;59.436;24.778;2023-02-04T02:25:48;4.88;;;2.60;;
40907;SDS011;51055;59.436;24.778;2023-02-04T02:28:19;4.70;;;2.65;;
40907;SDS011;51055;59.436;24.778;2023-02-04T02:30:47;4.65;;;2.28;;
40907;SDS011;51055;59.436;24.778;2023-02-04T02:33:16;6.45;;;2.40;;
40907;SDS011;51055;59.436;24.778;2023-02-04T02:35:45;5.43;;;2.70;;
40907;SDS011;51055;59.436;24.778;2023-02-04T02:38:16;5.28;;;2.70;;
40907;SDS011;51055;59.436;24.778;2023-02-04T02:40:44;4.80;;;2.73;;
40907;SDS011;51055;59.436;24.778;2023-02-04T02:43:14;4.40;;;2.40;;
40907;SDS011;51055;59.436;24.778;2023-02-04T02:45:41;5.10;;;2.35;;
40907;SDS011;51055;59.436;24.778;2023-02-04T02:48:09;5.55;;;2.47;;
40907;SDS011;51055;59.436;24.778;2023-02-04T02:50:37;5.13;;;2.85;;
40907;SDS011;51055;59.436;24.778;2023-02-04T02:53:09;4.85;;;2.65;;
40907;SDS011;51055;59.436;24.778;2023-02-04T02:55:36;3.97;;;2.30;;
40907;SDS011;51055;59.436;24.778;2023-02-04T02:58:04;4.00;;;2.30;;
40907;SDS011;51055;59.436;24.778;2023-02-04T03:00:36;5.22;;;2.72;;
40907;SDS011;51055;59.436;24.778;2023-02-04T03:03:05;4.50;;;2.22;;
40907;SDS011;51055;59.436;24.778;2023-02-04T03:05:38;4.82;;;2.67;;
40907;SDS011;51055;59.436;24.778;2023-02-04T03:08:07;4.50;;;2.45;;
40907;SDS011;51055;59.436;24.778;2023-02-04T03:10:35;6.20;;;2.50;;
40907;SDS011;51055;59.436;24.778;2023-02-04T03:13:03;4.65;;;2.63;;
40907;SDS011;51055;59.436;24.778;2023-02-04T03:15:30;5.00;;;2.38;;
40907;SDS011;51055;59.436;24.778;2023-02-04T03:17:58;4.78;;;2.50;;
40907;SDS011;51055;59.436;24.778;2023-02-04T03:20:26;3.10;;;1.80;;
40907;SDS011;51055;59.436;24.778;2023-02-04T03:22:55;4.60;;;2.40;;
40907;SDS011;51055;59.436;24.778;2023-02-04T03:25:23;4.00;;;2.42;;
40907;SDS011;51055;59.436;24.778;2023-02-04T03:27:52;4.57;;;2.75;;
40907;SDS011;51055;59.436;24.778;2023-02-04T03:30:20;4.85;;;2.75;;
40907;SDS011;51055;59.436;24.778;2023-02-04T03:32:47;4.07;;;2.35;;
40907;SDS011;51055;59.436;24.778;2023-02-04T03:35:15;5.25;;;2.75;;
40907;SDS011;51055;59.436;24.778;2023-02-04T03:37:42;4.82;;;2.80;;
40907;SDS011;51055;59.436;24.778;2023-02-04T03:40:10;5.15;;;2.70;;
40907;SDS011;51055;59.436;24.778;2023-02-04T03:42:37;5.00;;;2.75;;
40907;SDS011;51055;59.436;24.778;2023-02-04T03:45:05;5.28;;;2.70;;
40907;SDS011;51055;59.436;24.778;2023-02-04T03:47:32;5.28;;;3.00;;
40907;SDS011;51055;59.436;24.778;2023-02-04T03:49:59;3.58;;;2.10;;
40907;SDS011;51055;59.436;24.778;2023-02-04T03:52:27;4.93;;;2.40;;
40907;SDS011;51055;59.436;24.778;2023-02-04T03:54:54;4.75;;;1.98;;
40907;SDS011;51055;59.436;24.778;2023-02-04T03:57:21;4.22;;;2.30;;
40907;SDS011;51055;59.436;24.778;2023-02-04T03:59:48;4.28;;;2.70;;
40907;SDS011;51055;59.436;24.778;2023-02-04T04:02:15;5.07;;;2.45;;
40907;SDS011;51055;59.436;24.778;2023-02-04T04:04:43;5.28;;;2.30;;
40907;SDS011;51055;59.436;24.778;2023-02-04T04:07:10;3.70;;;2.33;;
40907;SDS011;51055;59.436;24.778;2023-02-04T04:09:37;6.22;;;2.30;;
40907;SDS011;51055;59.436;24.778;2023-02-04T04:12:04;4.25;;;2.45;;
40907;SDS011;51055;59.436;24.778;2023-02-04T04:14:31;4.05;;;2.30;;
40907;SDS011;51055;59.436;24.778;2023-02-04T04:16:59;6.68;;;2.40;;
40907;SDS011;51055;59.436;24.778;2023-02-04T04:19:26;4.07;;;2.05;;
40907;SDS011;51055;59.436;24.778;2023-02-04T04:21:54;4.60;;;2.60;;
40907;SDS011;51055;59.436;24.778;2023-02-04T04:24:21;5.38;;;2.38;;
40907;SDS011;51055;59.436;24.778;2023-02-04T04:26:48;4.85;;;2.50;;
40907;SDS011;51055;59.436;24.778;2023-02-04T04:29:15;5.70;;;2.55;;
40907;SDS011;51055;59.436;24.778;2023-02-04T04:31:42;4.88;;;2.70;;
40907;SDS011;51055;59.436;24.778;2023-02-04T04:34:10;6.18;;;3.20;;
40907;SDS011;51055;59.436;24.778;2023-02-04T04:36:41;3.80;;;2.40;;
40907;SDS011;51055;59.436;24.778;2023-02-04T04:39:09;3.95;;;2.30;;
40907;SDS011;51055;59.436;24.778;2023-02-04T04:41:36;4.43;;;2.80;;
40907;SDS011;51055;59.436;24.778;2023-02-04T04:44:04;5.22;;;2.90;;
40907;SDS011;51055;59.436;24.778;2023-02-04T04:46:31;4.38;;;2.75;;
40907;SDS011;51055;59.436;24.778;2023-02-04T04:48:58;4.93;;;2.78;;
40907;SDS011;51055;59.436;24.778;2023-02-04T04:51:25;4.50;;;2.60;;
40907;SDS011;51055;59.436;24.778;2023-02-04T04:53:53;4.80;;;2.97;;
40907;SDS011;51055;59.436;24.778;2023-02-04T04:56:20;4.82;;;2.90;;
40907;SDS011;51055;59.436;24.778;2023-02-04T04:58:48;5.90;;;2.88;;
40907;SDS011;51055;59.436;24.778;2023-02-04T05:01:15;4.82;;;3.08;;
40907;SDS011;51055;59.436;24.778;2023-02-04T05:03:43;5.38;;;3.28;;
40907;SDS011;51055;59.436;24.778;2023-02-04T05:06:10;5.07;;;2.42;;
40907;SDS011;51055;59.436;24.778;2023-02-04T05:08:39;5.10;;;2.83;;
40907;SDS011;51055;59.436;24.778;2023-02-04T05:11:06;5.60;;;2.83;;
40907;SDS011;51055;59.436;24.778;2023-02-04T05:13:33;5.15;;;3.17;;
40907;SDS011;51055;59.436;24.778;2023-02-04T05:16:00;4.90;;;3.03;;
40907;SDS011;51055;59.436;24.778;2023-02-04T05:18:27;6.38;;;2.97;;
40907;SDS011;51055;59.436;24.778;2023-02-04T05:20:54;5.00;;;2.92;;
40907;SDS011;51055;59.436;24.778;2023-02-04T05:23:22;5.75;;;3.10;;
40907;SDS011;51055;59.436;24.778;2023-02-04T05:25:49;6.82;;;3.47;;
40907;SDS011;51055;59.436;24.778;2023-02-04T05:28:16;6.38;;;3.47;;
40907;SDS011;51055;59.436;24.778;2023-02-04T05:30:43;6.25;;;3.15;;
40907;SDS011;51055;59.436;24.778;2023-02-04T05:33:11;4.82;;;2.97;;
40907;SDS011;51055;59.436;24.778;2023-02-04T05:35:38;5.53;;;3.20;;
40907;SDS011;51055;59.436;24.778;2023-02-04T05:38:06;6.30;;;3.45;;
40907;SDS011;51055;59.436;24.778;2023-02-04T05:40:33;5.20;;;3.00;;
40907;SDS011;51055;59.436;24.778;2023-02-04T05:43:00;5.40;;;2.90;;
40907;SDS011;51055;59.436;24.778;2023-02-04T05:45:28;5.15;;;3.20;;
40907;SDS011;51055;59.436;24.778;2023-02-04T05:47:55;5.20;;;3.20;;
40907;SDS011;51055;59.436;24.778;2023-02-04T05:50:22;4.47;;;2.95;;
40907;SDS011;51055;59.436;24.778;2023-02-04T05:52:49;6.15;;;3.10;;
40907;SDS011;51055;59.436;24.778;2023-02-04T05:55:17;5.38;;;2.95;;
40907;SDS011;51055;59.436;24.778;2023-02-04T05:57:44;6.30;;;3.53;;
40907;SDS011;51055;59.436;24.778;2023-02-04T06:00:11;5.20;;;3.05;;
40907;SDS011;51055;59.436;24.778;2023-02-04T06:02:39;5.03;;;3.00;;
40907;SDS011;51055;59.436;24.778;2023-02-04T06:05:06;5.10;;;3.10;;
40907;SDS011;51055;59.436;24.778;2023-02-04T06:07:34;4.82;;;2.88;;
40907;SDS011;51055;59.436;24.778;2023-02-04T06:10:01;5.30;;;3.25;;
40907;SDS011;51055;59.436;24.778;2023-02-04T06:12:28;5.72;;;3.45;;
40907;SDS011;51055;59.436;24.778;2023-02-04T06:14:55;7.00;;;3.35;;
40907;SDS011;51055;59.436;24.778;2023-02-04T06:17:22;5.82;;;3.05;;
40907;SDS011;51055;59.436;24.778;2023-02-04T06:19:50;5.85;;;3.60;;
40907;SDS011;51055;59.436;24.778;2023-02-04T06:22:18;5.85;;;3.25;;
40907;SDS011;51055;59.436;24.778;2023-02-04T06:24:45;5.32;;;3.15;;
40907;SDS011;51055;59.436;24.778;2023-02-04T06:27:13;5.63;;;2.90;;
40907;SDS011;51055;59.436;24.778;2023-02-04T06:29:40;5.20;;;2.75;;
40907;SDS011;51055;59.436;24.778;2023-02-04T06:32:07;6.40;;;2.75;;
40907;SDS011;51055;59.436;24.778;2023-02-04T06:34:34;5.70;;;2.70;;
40907;SDS011;51055;59.436;24.778;2023-02-04T06:37:02;5.97;;;3.20;;
40907;SDS011;51055;59.436;24.778;2023-02-04T06:39:29;6.13;;;2.85;;
40907;SDS011;51055;59.436;24.778;2023-02-04T06:41:57;5.70;;;3.05;;
40907;SDS011;51055;59.436;24.778;2023-02-04T06:44:24;7.05;;;3.25;;
40907;SDS011;51055;59.436;24.778;2023-02-04T06:46:51;8.10;;;3.10;;
40907;SDS011;51055;59.436;24.778;2023-02-04T06:49:18;5.97;;;3.05;;
40907;SDS011;51055;59.436;24.778;2023-02-04T06:51:46;5.80;;;2.78;;
40907;SDS011;51055;59.436;24.778;2023-02-04T06:54:14;6.18;;;2.58;;
40907;SDS011;51055;59.436;24.778;2023-02-04T06:56:41;7.25;;;2.78;;
40907;SDS011;51055;59.436;24.778;2023-02-04T06:59:09;3.87;;;1.87;;
40907;SDS011;51055;59.436;24.778;2023-02-04T07:01:38;4.57;;;2.67;;
40907;SDS011;51055;59.436;24.778;2023-02-04T07:04:06;5.88;;;3.05;;
40907;SDS011;51055;59.436;24.778;2023-02-04T07:06:34;5.30;;;2.75;;
40907;SDS011;51055;59.436;24.778;2023-02-04T07:09:01;5.35;;;2.72;;
40907;SDS011;51055;59.436;24.778;2023-02-04T07:11:29;4.88;;;2.55;;
40907;SDS011;51055;59.436;24.778;2023-02-04T07:13:57;7.55;;;2.65;;
40907;SDS011;51055;59.436;24.778;2023-02-04T07:16:24;6.00;;;2.72;;
40907;SDS011;51055;59.436;24.778;2023-02-04T07:18:51;5.57;;;2.70;;
40907;SDS011;51055;59.436;24.778;2023-02-04T07:21:19;4.82;;;2.35;;
40907;SDS011;51055;59.436;24.778;2023-02-04T07:23:46;6.13;;;2.80;;
40907;SDS011;51055;59.436;24.778;2023-02-04T07:26:13;5.55;;;2.80;;
40907;SDS011;51055;59.436;24.778;2023-02-04T07:28:41;6.85;;;2.88;;
40907;SDS011;51055;59.436;24.778;2023-02-04T07:31:09;5.18;;;2.33;;
40907;SDS011;51055;59.436;24.778;2023-02-04T07:33:37;4.22;;;2.17;;
40907;SDS011;51055;59.436;24.778;2023-02-04T07:36:05;4.90;;;2.40;;
40907;SDS011;51055;59.436;24.778;2023-02-04T07:38:32;5.13;;;2.30;;
40907;SDS011;51055;59.436;24.778;2023-02-04T07:40:59;5.95;;;2.63;;
40907;SDS011;51055;59.436;24.778;2023-02-04T07:43:27;4.90;;;2.47;;
40907;SDS011;51055;59.436;24.778;2023-02-04T07:45:54;7.60;;;2.28;;
40907;SDS011;51055;59.436;24.778;2023-02-04T07:48:21;4.95;;;2.45;;
40907;SDS011;51055;59.436;24.778;2023-02-04T07:50:49;4.15;;;2.00;;
40907;SDS011;51055;59.436;24.778;2023-02-04T07:53:16;5.25;;;2.35;;
40907;SDS011;51055;59.436;24.778;2023-02-04T07:55:44;4.05;;;1.95;;
40907;SDS011;51055;59.436;24.778;2023-02-04T07:58:11;5.25;;;2.38;;
40907;SDS011;51055;59.436;24.778;2023-02-04T08:00:39;4.55;;;2.15;;
40907;SDS011;51055;59.436;24.778;2023-02-04T08:03:06;5.95;;;2.50;;
40907;SDS011;51055;59.436;24.778;2023-02-04T08:05:33;5.63;;;2.33;;
40907;SDS011;51055;59.436;24.778;2023-02-04T08:08:00;4.90;;;2.15;;
40907;SDS011;51055;59.436;24.778;2023-02-04T08:10:29;4.18;;;2.22;;
40907;SDS011;51055;59.436;24.778;2023-02-04T08:12:57;4.75;;;2.20;;
40907;SDS011;51055;59.436;24.778;2023-02-04T08:15:24;5.05;;;2.55;;
40907;SDS011;51055;59.436;24.778;2023-02-04T08:17:51;6.32;;;2.53;;
40907;SDS011;51055;59.436;24.778;2023-02-04T08:20:19;6.35;;;2.50;;
40907;SDS011;51055;59.436;24.778;2023-02-04T08:22:46;7.13;;;2.35;;
40907;SDS011;51055;59.436;24.778;2023-02-04T08:25:13;6.90;;;2.70;;
40907;SDS011;51055;59.436;24.778;2023-02-04T08:27:41;5.55;;;2.45;;
40907;SDS011;51055;59.436;24.778;2023-02-04T08:30:09;8.45;;;3.13;;
40907;SDS011;51055;59.436;24.778;2023-02-04T08:32:37;8.35;;;2.63;;
40907;SDS011;51055;59.436;24.778;2023-02-04T08:35:06;6.13;;;3.08;;
40907;SDS011;51055;59.436;24.778;2023-02-04T08:37:33;6.30;;;2.67;;
40907;SDS011;51055;59.436;24.778;2023-02-04T08:40:01;8.05;;;2.80;;
40907;SDS011;51055;59.436;24.778;2023-02-04T08:42:28;6.90;;;3.03;;
40907;SDS011;51055;59.436;24.778;2023-02-04T08:44:55;6.15;;;3.03;;
40907;SDS011;51055;59.436;24.778;2023-02-04T08:47:23;6.97;;;3.17;;
40907;SDS011;51055;59.436;24.778;2023-02-04T08:49:50;7.30;;;2.60;;
40907;SDS011;51055;59.436;24.778;2023-02-04T08:52:17;7.25;;;3.00;;
40907;SDS011;51055;59.436;24.778;2023-02-04T08:54:45;6.53;;;2.92;;
40907;SDS011;51055;59.436;24.778;2023-02-04T08:57:12;4.78;;;2.40;;
40907;SDS011;51055;59.436;24.778;2023-02-04T08:59:39;5.05;;;2.47;;
40907;SDS011;51055;59.436;24.778;2023-02-04T09:02:08;6.63;;;2.63;;
40907;SDS011;51055;59.436;24.778;2023-02-04T09:04:35;4.40;;;2.15;;
40907;SDS011;51055;59.436;24.778;2023-02-04T09:07:03;5.47;;;2.53;;
40907;SDS011;51055;59.436;24.778;2023-02-04T09:09:30;5.60;;;2.10;;
40907;SDS011;51055;59.436;24.778;2023-02-04T09:11:57;5.90;;;2.40;;
40907;SDS011;51055;59.436;24.778;2023-02-04T09:14:25;6.60;;;2.40;;
40907;SDS011;51055;59.436;24.778;2023-02-04T09:16:52;5.78;;;2.30;;
40907;SDS011;51055;59.436;24.778;2023-02-04T09:19:20;4.47;;;2.28;;
40907;SDS011;51055;59.436;24.778;2023-02-04T09:21:51;5.05;;;2.28;;
40907;SDS011;51055;59.436;24.778;2023-02-04T09:24:19;5.70;;;2.47;;
40907;SDS011;51055;59.436;24.778;2023-02-04T09:26:50;5.18;;;2.50;;
40907;SDS011;51055;59.436;24.778;2023-02-04T09:29:17;5.97;;;2.50;;
40907;SDS011;51055;59.436;24.778;2023-02-04T09:31:45;6.00;;;2.67;;
40907;SDS011;51055;59.436;24.778;2023-02-04T09:34:12;5.55;;;2.40;;
40907;SDS011;51055;59.436;24.778;2023-02-04T09:36:39;6.45;;;2.92;;
40907;SDS011;51055;59.436;24.778;2023-02-04T09:39:07;6.00;;;2.17;;
40907;SDS011;51055;59.436;24.778;2023-02-04T09:41:37;6.68;;;2.67;;
40907;SDS011;51055;59.436;24.778;2023-02-04T09:44:13;6.82;;;2.70;;
40907;SDS011;51055;59.436;24.778;2023-02-04T09:46:46;6.32;;;2.67;;
40907;SDS011;51055;59.436;24.778;2023-02-04T09:49:14;7.13;;;2.92;;
40907;SDS011;51055;59.436;24.778;2023-02-04T09:51:42;6.40;;;2.63;;
40907;SDS011;51055;59.436;24.778;2023-02-04T09:54:17;5.68;;;2.72;;
40907;SDS011;51055;59.436;24.778;2023-02-04T09:56:45;8.88;;;2.85;;
40907;SDS011;51055;59.436;24.778;2023-02-04T09:59:16;7.00;;;2.65;;
40907;SDS011;51055;59.436;24.778;2023-02-04T10:01:45;4.72;;;2.45;;
40907;SDS011;51055;59.436;24.778;2023-02-04T10:04:13;6.90;;;3.20;;
40907;SDS011;51055;59.436;24.778;2023-02-04T10:06:41;6.45;;;2.65;;
40907;SDS011;51055;59.436;24.778;2023-02-04T10:09:11;6.27;;;2.67;;
40907;SDS011;51055;59.436;24.778;2023-02-04T10:11:40;5.50;;;2.55;;
40907;SDS011;51055;59.436;24.778;2023-02-04T10:14:10;5.60;;;2.60;;
40907;SDS011;51055;59.436;24.778;2023-02-04T10:16:38;6.88;;;2.92;;
40907;SDS011;51055;59.436;24.778;2023-02-04T10:19:10;7.70;;;2.70;;
40907;SDS011;51055;59.436;24.778;2023-02-04T10:21:39;5.25;;;2.50;;
40907;SDS011;51055;59.436;24.778;2023-02-04T10:24:14;5.25;;;2.38;;
40907;SDS011;51055;59.436;24.778;2023-02-04T10:26:42;4.68;;;2.55;;
40907;SDS011;51055;59.436;24.778;2023-02-04T10:29:19;7.07;;;2.70;;
40907;SDS011;51055;59.436;24.778;2023-02-04T10:31:48;5.65;;;2.30;;
40907;SDS011;51055;59.436;24.778;2023-02-04T10:36:50;5.15;;;1.95;;
40907;SDS011;51055;59.436;24.778;2023-02-04T10:39:19;4.47;;;2.15;;
40907;SDS011;51055;59.436;24.778;2023-02-04T10:41:50;5.38;;;2.30;;
40907;SDS011;51055;59.436;24.778;2023-02-04T10:44:19;5.72;;;2.85;;
40907;SDS011;51055;59.436;24.778;2023-02-04T10:46:47;6.20;;;2.92;;
40907;SDS011;51055;59.436;24.778;2023-02-04T10:49:21;5.45;;;2.75;;
40907;SDS011;51055;59.436;24.778;2023-02-04T10:51:50;6.53;;;2.58;;
40907;SDS011;51055;59.436;24.778;2023-02-04T10:54:19;5.15;;;2.55;;
40907;SDS011;51055;59.436;24.778;2023-02-04T10:59:43;5.47;;;3.00;;
40907;SDS011;51055;59.436;24.778;2023-02-04T11:05:01;5.18;;;2.33;;
40907;SDS011;51055;59.436;24.778;2023-02-04T11:07:28;4.07;;;2.10;;
40907;SDS011;51055;59.436;24.778;2023-02-04T11:09:56;4.38;;;2.17;;
40907;SDS011;51055;59.436;24.778;2023-02-04T11:12:35;5.78;;;2.40;;
40907;SDS011;51055;59.436;24.778;2023-02-04T11:15:03;5.55;;;2.17;;
40907;SDS011;51055;59.436;24.778;2023-02-04T11:17:31;6.10;;;2.22;;
40907;SDS011;51055;59.436;24.778;2023-02-04T11:20:12;4.70;;;2.00;;
40907;SDS011;51055;59.436;24.778;2023-02-04T11:22:41;4.13;;;1.92;;
40907;SDS011;51055;59.436;24.778;2023-02-04T11:27:54;5.53;;;2.40;;
40907;SDS011;51055;59.436;24.778;2023-02-04T11:30:21;5.28;;;2.40;;
40907;SDS011;51055;59.436;24.778;2023-02-04T11:32:55;5.57;;;2.60;;
40907;SDS011;51055;59.436;24.778;2023-02-04T11:35:27;5.63;;;2.53;;
40907;SDS011;51055;59.436;24.778;2023-02-04T11:37:55;6.05;;;2.40;;
40907;SDS011;51055;59.436;24.778;2023-02-04T11:40:29;5.43;;;2.50;;
40907;SDS011;51055;59.436;24.778;2023-02-04T11:42:58;7.32;;;2.72;;
40907;SDS011;51055;59.436;24.778;2023-02-04T11:45:27;5.80;;;2.90;;
40907;SDS011;51055;59.436;24.778;2023-02-04T11:47:57;5.22;;;2.30;;
40907;SDS011;51055;59.436;24.778;2023-02-04T11:50:30;6.80;;;2.42;;
40907;SDS011;51055;59.436;24.778;2023-02-04T11:52:58;5.53;;;2.05;;
40907;SDS011;51055;59.436;24.778;2023-02-04T11:55:29;5.32;;;2.17;;
40907;SDS011;51055;59.436;24.778;2023-02-04T11:57:57;5.13;;;2.30;;
40907;SDS011;51055;59.436;24.778;2023-02-04T12:00:25;6.65;;;3.22;;
40907;SDS011;51055;59.436;24.778;2023-02-04T12:03:03;8.30;;;3.05;;
40907;SDS011;51055;59.436;24.778;2023-02-04T12:05:44;6.97;;;3.20;;
40907;SDS011;51055;59.436;24.778;2023-02-04T12:10:58;6.03;;;2.70;;
40907;SDS011;51055;59.436;24.778;2023-02-04T12:13:26;6.45;;;2.83;;
40907;SDS011;51055;59.436;24.778;2023-02-04T12:16:00;5.38;;;2.72;;
40907;SDS011;51055;59.436;24.778;2023-02-04T12:18:28;7.40;;;2.47;;
40907;SDS011;51055;59.436;24.778;2023-02-04T12:20:55;6.55;;;2.80;;
40907;SDS011;51055;59.436;24.778;2023-02-04T12:23:25;7.15;;;2.55;;
40907;SDS011;51055;59.436;24.778;2023-02-04T12:25:52;7.97;;;2.60;;
40907;SDS011;51055;59.436;24.778;2023-02-04T12:28:20;5.10;;;2.30;;
40907;SDS011;51055;59.436;24.778;2023-02-04T12:30:48;5.57;;;2.28;;
40907;SDS011;51055;59.436;24.778;2023-02-04T12:33:15;4.93;;;2.38;;
40907;SDS011;51055;59.436;24.778;2023-02-04T12:35:43;5.18;;;2.42;;
40907;SDS011;51055;59.436;24.778;2023-02-04T12:38:10;4.82;;;2.20;;
40907;SDS011;51055;59.436;24.778;2023-02-04T12:40:37;4.97;;;2.15;;
40907;SDS011;51055;59.436;24.778;2023-02-04T12:43:05;5.53;;;2.33;;
40907;SDS011;51055;59.436;24.778;2023-02-04T12:45:33;5.43;;;2.20;;
40907;SDS011;51055;59.436;24.778;2023-02-04T12:48:01;6.75;;;2.80;;
40907;SDS011;51055;59.436;24.778;2023-02-04T12:50:29;4.75;;;2.30;;
40907;SDS011;51055;59.436;24.778;2023-02-04T12:52:57;5.95;;;2.38;;
40907;SDS011;51055;59.436;24.778;2023-02-04T12:55:26;5.50;;;2.50;;
40907;SDS011;51055;59.436;24.778;2023-02-04T12:57:53;6.65;;;2.67;;
40907;SDS011;51055;59.436;24.778;2023-02-04T13:00:22;4.30;;;2.30;;
40907;SDS011;51055;59.436;24.778;2023-02-04T13:02:50;4.65;;;2.20;;
40907;SDS011;51055;59.436;24.778;2023-02-04T13:05:17;5.05;;;2.35;;
40907;SDS011;51055;59.436;24.778;2023-02-04T13:07:44;4.38;;;2.40;;
40907;SDS011;51055;59.436;24.778;2023-02-04T13:10:12;5.95;;;2.60;;
40907;SDS011;51055;59.436;24.778;2023-02-04T13:12:40;5.30;;;2.28;;
40907;SDS011;51055;59.436;24.778;2023-02-04T13:15:08;4.43;;;2.10;;
40907;SDS011;51055;59.436;24.778;2023-02-04T13:17:36;3.72;;;2.05;;
40907;SDS011;51055;59.436;24.778;2023-02-04T13:20:03;5.85;;;2.67;;
40907;SDS011;51055;59.436;24.778;2023-02-04T13:22:31;5.15;;;2.30;;
40907;SDS011;51055;59.436;24.778;2023-02-04T13:24:58;7.97;;;2.55;;
40907;SDS011;51055;59.436;24.778;2023-02-04T13:27:25;6.10;;;2.90;;
40907;SDS011;51055;59.436;24.778;2023-02-04T13:32:22;5.65;;;2.00;;
40907;SDS011;51055;59.436;24.778;2023-02-04T13:34:49;3.80;;;1.95;;
40907;SDS011;51055;59.436;24.778;2023-02-04T13:37:16;4.88;;;1.40;;
40907;SDS011;51055;59.436;24.778;2023-02-04T13:39:44;7.70;;;1.90;;
40907;SDS011;51055;59.436;24.778;2023-02-04T13:42:12;4.13;;;1.60;;
40907;SDS011;51055;59.436;24.778;2023-02-04T13:44:39;5.47;;;1.58;;
40907;SDS011;51055;59.436;24.778;2023-02-04T13:47:07;3.70;;;1.50;;
40907;SDS011;51055;59.436;24.778;2023-02-04T13:49:34;4.63;;;1.58;;
40907;SDS011;51055;59.436;24.778;2023-02-04T13:52:01;2.63;;;1.30;;
40907;SDS011;51055;59.436;24.778;2023-02-04T13:54:29;3.65;;;1.45;;
40907;SDS011;51055;59.436;24.778;2023-02-04T13:56:56;3.78;;;1.33;;
40907;SDS011;51055;59.436;24.778;2023-02-04T13:59:23;7.18;;;1.95;;
40907;SDS011;51055;59.436;24.778;2023-02-04T14:01:51;3.75;;;1.50;;
40907;SDS011;51055;59.436;24.778;2023-02-04T14:04:18;6.32;;;1.33;;
40907;SDS011;51055;59.436;24.778;2023-02-04T14:06:46;5.70;;;1.50;;
40907;SDS011;51055;59.436;24.778;2023-02-04T14:09:13;4.20;;;1.58;;
40907;SDS011;51055;59.436;24.778;2023-02-04T14:11:41;4.55;;;1.40;;
40907;SDS011;51055;59.436;24.778;2023-02-04T14:14:08;3.92;;;1.73;;
40907;SDS011;51055;59.436;24.778;2023-02-04T14:16:35;4.20;;;1.55;;
40907;SDS011;51055;59.436;24.778;2023-02-04T14:19:04;4.05;;;1.80;;
40907;SDS011;51055;59.436;24.778;2023-02-04T14:21:32;4.30;;;2.03;;
40907;SDS011;51055;59.436;24.778;2023-02-04T14:24:00;4.97;;;1.75;;
40907;SDS011;51055;59.436;24.778;2023-02-04T14:26:27;5.88;;;1.90;;
40907;SDS011;51055;59.436;24.778;2023-02-04T14:28:55;4.82;;;2.08;;
40907;SDS011;51055;59.436;24.778;2023-02-04T14:31:22;10.23;;;4.25;;
40907;SDS011;51055;59.436;24.778;2023-02-04T14:33:50;7.93;;;2.35;;
40907;SDS011;51055;59.436;24.778;2023-02-04T14:36:18;6.97;;;2.83;;
40907;SDS011;51055;59.436;24.778;2023-02-04T14:38:45;11.82;;;7.10;;
40907;SDS011;51055;59.436;24.778;2023-02-04T14:41:12;7.90;;;4.63;;
40907;SDS011;51055;59.436;24.778;2023-02-04T14:43:42;8.07;;;3.53;;
40907;SDS011;51055;59.436;24.778;2023-02-04T14:46:09;6.63;;;2.70;;
40907;SDS011;51055;59.436;24.778;2023-02-04T14:48:37;8.23;;;3.47;;
40907;SDS011;51055;59.436;24.778;2023-02-04T14:51:04;5.07;;;2.30;;
40907;SDS011;51055;59.436;24.778;2023-02-04T14:53:32;7.80;;;3.58;;
40907;SDS011;51055;59.436;24.778;2023-02-04T14:55:59;6.13;;;3.03;;